Main page
METAR-TAF:

METAR-TAF

Airports :

Djibouti–Ambouli International Airport

Djibouti, Djibouti

latitude: 11-33N, longitude: 043-10E, elevation: 49 m

Current weather observation

The report was made 1 hour and 1 minutes ago, at 10:00 UTC
Wind 11 kt from the East
Temperature 38°C
Humidity 40%
Pressure 1004 hPa
Visibility: 8000 m
Few clouds at a height of 13300 ft
haze

METAR: HDAM 121000Z 08011KT 8000 HZ FEW133 38/22 Q1004

Time: 14:01 (11:01 UTC)

Forecast

The report was made 6 hours and 1 minutes ago, at 05:00 UTC
Forecast valid from 12 at 06 UTC to 13 at 06 UTC
Wind 12 kt from the East
Visibility: 8000 m
Few clouds at a height of 13300 ft
haze
Becoming
from 12 at 15 UTC to 12 at 21 UTC
Wind 5 kt from variable directions
Scattered clouds at a height of 13300 ft
Becoming
from 13 at 00 UTC to 13 at 06 UTC
Wind kt from the North
Visibility: 8000 m
Few clouds at a height of 13300 ft
haze

TAF: HDAM 120500Z 1206/1306 08012KT 8000 HZ FEW133 BECMG 1215/1221 VRB05KT SCT133 BECMG 1300/1306 00000KT 8000 HZ FEW133

Weather observations and forecasts of more than 4000 airports (METAR and TAF reports).

The available stations are represented by yellow and red dots on the map.

Hover mouse over dot to see the name of the station.

Then click to see weather observations and forecasts.

To change the map : click on the green buttons with a black cross to zoom in, on the green button with a dash to zoom out, or on the green arrows for adjacent maps.


METAR-TAF: